createdAt,value
2023-01-03T00:04:52.138Z,0
2023-01-03T00:09:51.864Z,0
2023-01-03T00:14:52.118Z,0
2023-01-03T00:19:52.331Z,0
2023-01-03T00:24:51.852Z,0
2023-01-03T00:29:52.099Z,0
2023-01-03T00:34:52.187Z,0
2023-01-03T00:39:52.295Z,0
2023-01-03T00:44:52.061Z,0
2023-01-03T00:49:52.104Z,0
2023-01-03T00:54:51.910Z,0
2023-01-03T00:59:52.122Z,0
2023-01-03T01:04:52.728Z,0
2023-01-03T01:09:52.162Z,0
2023-01-03T01:14:51.931Z,0
2023-01-03T01:19:52.262Z,0
2023-01-03T01:24:52.128Z,0
2023-01-03T01:29:51.801Z,0
2023-01-03T01:34:51.820Z,0
2023-01-03T01:39:51.999Z,0
2023-01-03T01:44:52.090Z,0
2023-01-03T01:49:51.773Z,0
2023-01-03T01:54:51.905Z,0
2023-01-03T01:59:52.029Z,0
2023-01-03T02:04:52.130Z,0
2023-01-03T02:09:51.968Z,0
2023-01-03T02:14:58.897Z,0
2023-01-03T02:19:52.066Z,0
2023-01-03T02:25:18.966Z,0
2023-01-03T02:29:51.831Z,0
2023-01-03T02:34:56.167Z,0
2023-01-03T02:39:51.706Z,0
2023-01-03T02:44:51.758Z,0
2023-01-03T02:49:51.939Z,0
2023-01-03T02:54:51.985Z,0
2023-01-03T02:59:51.780Z,0
2023-01-03T03:04:51.793Z,0
2023-01-03T03:09:51.739Z,0
2023-01-03T03:14:51.937Z,0
2023-01-03T03:19:51.972Z,0
2023-01-03T03:24:52.406Z,0
2023-01-03T03:29:53.628Z,0
2023-01-03T03:34:51.690Z,0
2023-01-03T03:39:52.536Z,0
2023-01-03T03:44:51.720Z,0
2023-01-03T03:49:51.918Z,0
2023-01-03T03:54:51.665Z,0
2023-01-03T03:59:51.833Z,0
2023-01-03T04:04:51.807Z,0
2023-01-03T04:09:51.912Z,0
2023-01-03T04:14:51.788Z,0
2023-01-03T04:19:51.928Z,0
2023-01-03T04:24:51.828Z,0
2023-01-03T04:29:51.939Z,0
2023-01-03T04:34:51.906Z,0
2023-01-03T04:39:51.723Z,0
2023-01-03T04:44:51.715Z,0
2023-01-03T04:49:52.179Z,0
2023-01-03T04:54:51.983Z,0
2023-01-03T04:59:51.733Z,0
2023-01-03T05:04:51.765Z,0
2023-01-03T05:09:51.770Z,0
2023-01-03T05:14:51.592Z,0
2023-01-03T05:19:52.025Z,0
2023-01-03T05:24:51.586Z,0
2023-01-03T05:29:51.830Z,0
2023-01-03T05:34:51.648Z,0
2023-01-03T05:39:51.956Z,0
2023-01-03T05:44:52.071Z,0
2023-01-03T05:49:51.950Z,0
2023-01-03T05:54:51.744Z,0
2023-01-03T05:59:52.208Z,0
2023-01-03T06:04:51.961Z,0
2023-01-03T06:09:51.912Z,0
2023-01-03T06:14:51.552Z,0
2023-01-03T06:19:51.755Z,0
2023-01-03T06:24:51.604Z,0
2023-01-03T06:29:51.656Z,0
2023-01-03T06:34:51.695Z,0
2023-01-03T06:39:51.773Z,0
2023-01-03T06:44:51.787Z,0
2023-01-03T06:49:52.041Z,0
2023-01-03T06:54:52.255Z,0
2023-01-03T06:59:51.806Z,0
2023-01-03T07:04:51.904Z,0
2023-01-03T07:09:51.656Z,0
2023-01-03T07:14:51.486Z,0
2023-01-03T07:19:51.605Z,0
2023-01-03T07:24:51.711Z,0
2023-01-03T07:29:51.597Z,0
2023-01-03T07:34:51.649Z,0
2023-01-03T07:39:51.969Z,0
2023-01-03T07:44:51.594Z,0
2023-01-03T07:49:52.003Z,0
2023-01-03T07:54:51.517Z,0.3
2023-01-03T07:59:51.592Z,1.5
2023-01-03T08:04:51.579Z,2.2
2023-01-03T08:09:51.518Z,2
2023-01-03T08:14:51.795Z,2.2
2023-01-03T08:19:51.512Z,2.4
2023-01-03T08:24:51.963Z,3.4
2023-01-03T08:29:51.640Z,4.3
2023-01-03T08:34:51.895Z,7.8
2023-01-03T08:39:51.593Z,8.9
2023-01-03T08:44:54.205Z,8.1
2023-01-03T08:49:51.711Z,8.9
2023-01-03T08:54:51.798Z,11
2023-01-03T08:59:52.046Z,14.7
2023-01-03T09:04:51.639Z,14
2023-01-03T09:09:51.606Z,13.1
2023-01-03T09:14:51.411Z,13.6
2023-01-03T09:19:51.700Z,13
2023-01-03T09:24:51.577Z,14.4
2023-01-03T09:29:51.494Z,13.8
2023-01-03T09:34:51.479Z,14.2
2023-01-03T09:39:51.606Z,17.6
2023-01-03T09:44:51.440Z,19.9
2023-01-03T09:50:26.653Z,16.4
2023-01-03T09:54:51.896Z,16.1
2023-01-03T09:59:51.643Z,16.7
2023-01-03T10:05:19.659Z,16.8
2023-01-03T10:09:55.160Z,17
2023-01-03T10:15:00.817Z,19.8
2023-01-03T10:19:58.570Z,20.7
2023-01-03T10:24:51.618Z,21.8
2023-01-03T10:29:51.531Z,18.6
2023-01-03T10:34:51.676Z,17.6
2023-01-03T10:40:00.487Z,17.8
2023-01-03T10:44:59.751Z,15.2
2023-01-03T10:49:51.630Z,16.8
2023-01-03T10:54:51.336Z,23.1
2023-01-03T10:59:51.595Z,25.9
2023-01-03T11:04:51.770Z,27.5
2023-01-03T11:09:51.986Z,26.9
2023-01-03T11:14:51.301Z,34
2023-01-03T11:19:51.483Z,35.3
2023-01-03T11:24:51.362Z,33.9
2023-01-03T11:29:51.544Z,32.4
2023-01-03T11:35:25.006Z,30.1
2023-01-03T11:39:51.261Z,27.6
2023-01-03T11:44:58.235Z,26.9
2023-01-03T11:50:00.673Z,23.7
2023-01-03T11:55:04.830Z,21
2023-01-03T11:59:57.046Z,25.2
2023-01-03T12:04:51.510Z,28.2
2023-01-03T12:09:51.544Z,32.5
2023-01-03T12:14:53.279Z,31.3
2023-01-03T12:19:51.563Z,33
2023-01-03T12:24:55.795Z,35.9
2023-01-03T12:29:55.833Z,39.5
2023-01-03T12:34:55.352Z,39
2023-01-03T12:39:51.369Z,51.6
2023-01-03T12:44:55.725Z,44.3
2023-01-03T12:49:54.867Z,34.6
2023-01-03T12:54:51.306Z,31.9
2023-01-03T12:59:51.164Z,26.8
2023-01-03T13:04:51.591Z,25.1
2023-01-03T13:09:58.887Z,27.6
2023-01-03T13:14:51.260Z,38.4
2023-01-03T13:19:51.325Z,49.5
2023-01-03T13:24:51.893Z,59.5
2023-01-03T13:29:51.314Z,52
2023-01-03T13:34:51.315Z,68.7
2023-01-03T13:40:09.379Z,73.3
2023-01-03T13:44:51.398Z,71.4
2023-01-03T13:49:54.039Z,51.5
2023-01-03T13:54:51.320Z,47.2
2023-01-03T13:59:51.271Z,42.3
2023-01-03T14:04:51.417Z,27.6
2023-01-03T14:09:51.248Z,25.4
2023-01-03T14:14:52.783Z,23
2023-01-03T14:19:52.782Z,15
2023-01-03T14:24:51.352Z,15
2023-01-03T14:29:51.271Z,15.1
2023-01-03T14:34:51.177Z,14.6
2023-01-03T14:39:51.261Z,15.8
2023-01-03T14:44:51.371Z,15.6
2023-01-03T14:49:51.309Z,14.1
2023-01-03T14:54:51.470Z,12.7
2023-01-03T14:59:51.214Z,11.2
2023-01-03T15:04:51.435Z,11.7
2023-01-03T15:09:51.277Z,9.5
2023-01-03T15:14:51.404Z,7.1
2023-01-03T15:19:51.411Z,4.6
2023-01-03T15:24:51.315Z,4
2023-01-03T15:29:51.419Z,3.1
2023-01-03T15:34:51.518Z,2.2
2023-01-03T15:39:51.229Z,1.9
2023-01-03T15:44:51.515Z,1.2
2023-01-03T15:49:53.632Z,0.8
2023-01-03T15:54:51.278Z,0.3
2023-01-03T15:59:53.107Z,0.1
2023-01-03T16:04:51.124Z,0
2023-01-03T16:09:51.191Z,0
2023-01-03T16:14:51.157Z,0
2023-01-03T16:19:51.374Z,0
2023-01-03T16:24:51.156Z,0
2023-01-03T16:29:51.466Z,0
2023-01-03T16:34:51.570Z,0
2023-01-03T16:39:51.373Z,0
2023-01-03T16:44:51.006Z,0
2023-01-03T16:49:51.384Z,0
2023-01-03T16:54:51.246Z,0
2023-01-03T16:59:51.127Z,0
2023-01-03T17:04:51.332Z,0
2023-01-03T17:09:51.008Z,0
2023-01-03T17:14:51.266Z,0
2023-01-03T17:20:05.556Z,0
2023-01-03T17:24:51.308Z,0
2023-01-03T17:29:51.028Z,0
2023-01-03T17:34:51.295Z,0
2023-01-03T17:39:51.160Z,0
2023-01-03T17:44:51.800Z,0
2023-01-03T17:49:51.262Z,0
2023-01-03T17:54:51.049Z,0
2023-01-03T17:59:50.978Z,0
2023-01-03T18:05:15.160Z,0
2023-01-03T18:09:52.084Z,0
2023-01-03T18:14:51.196Z,0
2023-01-03T18:19:51.201Z,0
2023-01-03T18:24:51.055Z,0
2023-01-03T18:29:51.164Z,0
2023-01-03T18:34:51.627Z,0
2023-01-03T18:39:51.141Z,0
2023-01-03T18:44:51.248Z,0
2023-01-03T18:49:51.072Z,0
2023-01-03T18:54:51.075Z,0
2023-01-03T18:59:50.994Z,0
2023-01-03T19:04:52.011Z,0
2023-01-03T19:09:51.013Z,0
2023-01-03T19:14:51.301Z,0
2023-01-03T19:19:50.850Z,0
2023-01-03T19:24:51.207Z,0
2023-01-03T19:29:50.904Z,0
2023-01-03T19:34:50.919Z,0
2023-01-03T19:39:50.910Z,0
2023-01-03T19:44:51.023Z,0
2023-01-03T19:49:51.146Z,0
2023-01-03T19:54:51.169Z,0
2023-01-03T19:59:52.460Z,0
2023-01-03T20:04:51.140Z,0
2023-01-03T20:09:51.164Z,0
2023-01-03T20:14:50.881Z,0
2023-01-03T20:19:51.103Z,0
2023-01-03T20:24:51.018Z,0
2023-01-03T20:29:50.861Z,0
2023-01-03T20:34:51.284Z,0
2023-01-03T20:39:50.812Z,0
2023-01-03T20:44:51.111Z,0
2023-01-03T20:49:51.070Z,0
2023-01-03T20:54:51.157Z,0
2023-01-03T20:59:51.250Z,0
2023-01-03T21:04:50.848Z,0
2023-01-03T21:09:50.953Z,0
2023-01-03T21:14:51.056Z,0
2023-01-03T21:19:50.871Z,0
2023-01-03T21:24:57.316Z,0
2023-01-03T21:29:51.114Z,0
2023-01-03T21:34:51.172Z,0
2023-01-03T21:39:51.024Z,0
2023-01-03T21:44:51.098Z,0
2023-01-03T21:49:51.110Z,0
2023-01-03T21:54:51.144Z,0
2023-01-03T21:59:50.977Z,0
2023-01-03T22:04:51.142Z,0
2023-01-03T22:09:50.982Z,0
2023-01-03T22:14:51.039Z,0
2023-01-03T22:19:51.427Z,0
2023-01-03T22:24:50.986Z,0
2023-01-03T22:29:50.783Z,0
2023-01-03T22:34:50.970Z,0
2023-01-03T22:39:50.948Z,0
2023-01-03T22:44:51.041Z,0
2023-01-03T22:49:51.031Z,0
2023-01-03T22:54:50.801Z,0
2023-01-03T22:59:50.919Z,0
2023-01-03T23:04:51.124Z,0
2023-01-03T23:09:50.849Z,0
2023-01-03T23:14:50.712Z,0
2023-01-03T23:19:50.973Z,0
2023-01-03T23:24:51.183Z,0
2023-01-03T23:29:51.019Z,0
2023-01-03T23:34:50.886Z,0
2023-01-03T23:39:50.981Z,0
2023-01-03T23:44:51.067Z,0
2023-01-03T23:49:50.992Z,0
2023-01-03T23:54:54.730Z,0
2023-01-03T23:59:50.937Z,0
